Time;durP1;ratioP1;P1;durP2;ratioP2;P2;SDS_P1;SDS_P2;PMS_P1;PMS_P2;Temp;Humidity;BMP_temperature;BMP_pressure;BME280_temperature;BME280_humidity;BME280_pressure;Samples;Min_cycle;Max_cycle;Signal;HPM_P1;HPM_P2
2022/10/26 00:00:43;;;;;;;10.50;3.30;;;;;;;;;;4858454;29;20089;-62
2022/10/26 00:03:10;;;;;;;7.68;3.47;;;;;;;;;;4873228;29;20447;-62
2022/10/26 00:05:36;;;;;;;8.68;3.33;;;;;;;;;;4859623;29;20049;-62
2022/10/26 00:08:03;;;;;;;10.77;3.78;;;;;;;;;;4859688;29;20045;-62
2022/10/26 00:10:29;;;;;;;6.90;3.67;;;;;;;;;;4859742;29;20053;-62
2022/10/26 00:12:57;;;;;;;10.00;3.67;;;;;;;;;;4873196;29;20091;-62
2022/10/26 00:15:23;;;;;;;7.63;3.55;;;;;;;;;;4858243;29;20053;-62
2022/10/26 00:17:50;;;;;;;10.90;3.15;;;;;;;;;;4858472;29;20106;-62
2022/10/26 00:20:17;;;;;;;11.80;3.45;;;;;;;;;;4858212;29;20046;-63
2022/10/26 00:22:43;;;;;;;8.02;3.53;;;;;;;;;;4857653;29;20056;-62
2022/10/26 00:25:10;;;;;;;8.90;3.88;;;;;;;;;;4859801;29;20056;-62
2022/10/26 00:27:36;;;;;;;6.18;3.17;;;;;;;;;;4860002;29;20053;-62
2022/10/26 00:30:03;;;;;;;11.45;3.72;;;;;;;;;;4858383;29;20106;-62
2022/10/26 00:32:30;;;;;;;7.97;3.55;;;;;;;;;;4872911;29;20053;-62
2022/10/26 00:34:57;;;;;;;8.15;3.45;;;;;;;;;;4859729;29;20049;-62
2022/10/26 00:37:41;;;;;;;;;;;;;;;;;;4859020;29;20102;-62
2022/10/26 00:40:07;;;;;;;7.50;4.07;;;;;;;;;;4859459;29;19924;-60
2022/10/26 00:42:34;;;;;;;9.02;3.92;;;;;;;;;;4857784;29;20053;-62
2022/10/26 00:45:06;;;;;;;10.52;3.65;;;;;;;;;;4858240;29;20101;-62
2022/10/26 00:47:38;;;;;;;8.18;3.63;;;;;;;;;;4859842;29;20057;-62
2022/10/26 00:50:10;;;;;;;17.38;3.88;;;;;;;;;;4858285;29;20050;-61
2022/10/26 00:52:37;;;;;;;6.90;2.90;;;;;;;;;;4873238;29;20068;-61
2022/10/26 00:55:04;;;;;;;4.80;3.03;;;;;;;;;;4860419;29;20045;-61
2022/10/26 00:57:31;;;;;;;10.20;3.47;;;;;;;;;;4862700;29;20042;-61
2022/10/26 00:59:58;;;;;;;6.95;2.85;;;;;;;;;;4862866;29;20478;-61
2022/10/26 01:02:25;;;;;;;5.85;2.58;;;;;;;;;;4864357;29;20049;-61
2022/10/26 01:04:52;;;;;;;5.68;2.63;;;;;;;;;;4866196;29;20053;-62
2022/10/26 01:07:19;;;;;;;8.10;2.90;;;;;;;;;;4878966;29;20050;-61
2022/10/26 01:09:51;;;;;;;7.03;2.78;;;;;;;;;;4884336;29;20056;-61
2022/10/26 01:12:18;;;;;;;5.50;2.60;;;;;;;;;;4869253;29;20670;-61
2022/10/26 01:14:44;;;;;;;3.90;2.53;;;;;;;;;;4870485;29;20045;-61
2022/10/26 01:17:29;;;;;;;5.95;2.50;;;;;;;;;;4871778;29;20185;-61
2022/10/26 01:20:14;;;;;;;6.68;2.80;;;;;;;;;;4863606;29;20102;-61
2022/10/26 01:22:46;;;;;;;6.93;2.67;;;;;;;;;;4876582;29;20049;-63
2022/10/26 01:25:18;;;;;;;3.63;2.35;;;;;;;;;;4846407;29;20049;-61
2022/10/26 01:27:46;;;;;;;4.68;2.55;;;;;;;;;;4863655;29;20507;-61
2022/10/26 01:30:19;;;;;;;11.45;2.75;;;;;;;;;;4862519;29;20049;-61
2022/10/26 01:33:04;;;;;;;6.45;2.53;;;;;;;;;;4861944;29;20082;-61
2022/10/26 01:35:49;;;;;;;7.68;2.63;;;;;;;;;;4845791;29;20049;-61
2022/10/26 01:38:31;;;;;;;5.13;2.72;;;;;;;;;;4862455;29;20045;-61
2022/10/26 01:41:09;;;;;;;7.93;2.80;;;;;;;;;;4861020;29;20566;-61
2022/10/26 01:43:40;;;;;;;8.07;3.05;;;;;;;;;;4860273;29;20057;-61
2022/10/26 01:46:08;;;;;;;9.90;3.30;;;;;;;;;;4861987;29;20053;-61
2022/10/26 01:48:35;;;;;;;8.40;3.58;;;;;;;;;;4860714;29;20046;-61
2022/10/26 01:51:03;;;;;;;4.75;3.05;;;;;;;;;;4861888;29;20058;-61
2022/10/26 01:53:30;;;;;;;6.72;2.95;;;;;;;;;;4861099;29;20049;-61
2022/10/26 01:55:57;;;;;;;6.90;3.90;;;;;;;;;;4860452;29;20117;-61
2022/10/26 01:58:47;;;;;;;6.38;2.83;;;;;;;;;;4861099;29;20506;-61
2022/10/26 02:01:19;;;;;;;9.30;3.10;;;;;;;;;;4856452;29;20054;-61
2022/10/26 02:03:52;;;;;;;5.97;2.53;;;;;;;;;;4860213;29;20118;-61
2022/10/26 02:06:29;;;;;;;11.53;3.73;;;;;;;;;;4844219;29;20057;-61
2022/10/26 02:08:59;;;;;;;5.80;3.00;;;;;;;;;;4875768;29;20467;-61
2022/10/26 02:11:51;;;;;;;5.22;3.30;;;;;;;;;;4860435;29;20055;-61
2022/10/26 02:14:33;;;;;;;8.98;2.88;;;;;;;;;;4857619;29;20062;-61
2022/10/26 02:17:09;;;;;;;7.93;2.95;;;;;;;;;;4861356;29;20061;-61
2022/10/26 02:19:44;;;;;;;8.48;3.05;;;;;;;;;;4844891;29;20503;-61
2022/10/26 02:22:17;;;;;;;8.85;3.40;;;;;;;;;;4861319;29;20042;-61
2022/10/26 02:24:44;;;;;;;;;;;;;;;;;;4861869;29;20049;-61
2022/10/26 02:27:12;;;;;;;7.55;3.22;;;;;;;;;;4859888;29;20346;-61
2022/10/26 02:29:39;;;;;;;8.00;3.08;;;;;;;;;;4861436;29;20282;-59
2022/10/26 02:32:07;;;;;;;8.05;3.10;;;;;;;;;;4860267;29;20046;-60
2022/10/26 02:34:36;;;;;;;9.02;3.70;;;;;;;;;;4862026;29;20053;-59
2022/10/26 02:37:03;;;;;;;9.85;3.08;;;;;;;;;;4861736;29;20080;-60
2022/10/26 02:39:31;;;;;;;8.68;3.05;;;;;;;;;;4861001;29;20045;-61
2022/10/26 02:42:00;;;;;;;8.70;3.25;;;;;;;;;;4860455;29;20392;-60
2022/10/26 02:44:28;;;;;;;14.05;4.15;;;;;;;;;;4860838;29;20415;-60
2022/10/26 02:46:55;;;;;;;10.68;3.45;;;;;;;;;;4859533;29;20057;-61
2022/10/26 02:49:22;;;;;;;5.75;2.72;;;;;;;;;;4860706;29;20109;-61
2022/10/26 02:52:03;;;;;;;4.07;2.70;;;;;;;;;;4860575;29;20078;-59
2022/10/26 02:54:33;;;;;;;6.45;2.67;;;;;;;;;;4860587;29;20049;-62
2022/10/26 02:57:04;;;;;;;6.97;3.08;;;;;;;;;;4859517;29;20049;-60
2022/10/26 02:59:34;;;;;;;8.95;3.20;;;;;;;;;;4860587;29;20041;-60
2022/10/26 03:02:00;;;;;;;5.13;2.85;;;;;;;;;;4874136;29;20049;-60
2022/10/26 03:04:31;;;;;;;7.97;2.88;;;;;;;;;;4859331;29;20041;-60
2022/10/26 03:06:57;;;;;;;7.35;3.53;;;;;;;;;;4859586;29;20046;-63
2022/10/26 03:09:24;;;;;;;11.13;3.33;;;;;;;;;;4859196;29;20052;-62
2022/10/26 03:11:51;;;;;;;9.88;2.92;;;;;;;;;;4859865;29;20467;-60
2022/10/26 03:14:18;;;;;;;8.52;3.30;;;;;;;;;;4860665;29;20093;-63
2022/10/26 03:16:44;;;;;;;12.13;3.88;;;;;;;;;;4860188;29;20177;-61
2022/10/26 03:19:10;;;;;;;7.63;2.85;;;;;;;;;;4860041;29;20128;-61
2022/10/26 03:21:37;;;;;;;8.50;3.58;;;;;;;;;;4859938;29;20045;-64
2022/10/26 03:24:03;;;;;;;8.68;3.67;;;;;;;;;;4860053;29;20049;-59
2022/10/26 03:26:30;;;;;;;8.10;3.30;;;;;;;;;;4874362;29;20344;-61
2022/10/26 03:28:56;;;;;;;10.93;3.22;;;;;;;;;;4860100;29;20077;-62
2022/10/26 03:31:22;;;;;;;6.45;3.40;;;;;;;;;;4858826;29;20046;-62
2022/10/26 03:33:49;;;;;;;6.63;3.28;;;;;;;;;;4858275;29;20526;-62
2022/10/26 03:36:15;;;;;;;8.63;3.40;;;;;;;;;;4860256;29;20463;-61
2022/10/26 03:38:42;;;;;;;7.15;3.38;;;;;;;;;;4874185;29;20045;-62
2022/10/26 03:41:08;;;;;;;6.88;3.30;;;;;;;;;;4859861;29;20094;-61
2022/10/26 03:43:34;;;;;;;8.27;3.00;;;;;;;;;;4859551;29;20042;-62
2022/10/26 03:46:01;;;;;;;5.50;2.80;;;;;;;;;;4858605;29;20053;-62
2022/10/26 03:48:27;;;;;;;3.75;2.65;;;;;;;;;;4859850;29;20105;-62
2022/10/26 03:50:58;;;;;;;6.97;2.88;;;;;;;;;;4859858;29;20049;-62
2022/10/26 03:53:25;;;;;;;7.55;2.90;;;;;;;;;;4859323;29;20052;-62
2022/10/26 03:55:51;;;;;;;7.90;3.20;;;;;;;;;;4843113;29;20049;-61
2022/10/26 03:58:17;;;;;;;7.57;3.38;;;;;;;;;;4859868;29;20101;-60
2022/10/26 04:03:35;;;;;;;7.85;3.30;;;;;;;;;;4873969;29;20061;-62
2022/10/26 04:06:02;;;;;;;5.30;2.83;;;;;;;;;;4878256;29;20183;-63
2022/10/26 04:08:28;;;;;;;4.22;2.42;;;;;;;;;;4877014;29;20080;-62
2022/10/26 04:10:54;;;;;;;6.53;3.03;;;;;;;;;;4878172;29;20041;-62
2022/10/26 04:13:23;;;;;;;6.00;3.40;;;;;;;;;;4876294;29;20409;-62
2022/10/26 04:15:49;;;;;;;5.72;2.97;;;;;;;;;;4876778;29;20109;-62
2022/10/26 04:18:16;;;;;;;8.20;3.92;;;;;;;;;;4877007;29;20049;-62
2022/10/26 04:20:42;;;;;;;7.03;3.40;;;;;;;;;;4876838;29;20057;-61
2022/10/26 04:23:13;;;;;;;6.45;3.55;;;;;;;;;;4876417;29;20052;-62
2022/10/26 04:25:41;;;;;;;6.32;2.95;;;;;;;;;;4878039;29;20135;-62
2022/10/26 04:28:09;;;;;;;9.55;3.10;;;;;;;;;;4878062;29;20398;-63
2022/10/26 04:30:35;;;;;;;8.35;3.28;;;;;;;;;;4879814;29;20488;-62
2022/10/26 04:33:02;;;;;;;7.53;3.10;;;;;;;;;;4880950;29;20047;-63
2022/10/26 04:35:29;;;;;;;10.07;2.95;;;;;;;;;;4880427;29;20093;-62
2022/10/26 04:37:59;;;;;;;8.98;3.25;;;;;;;;;;4881506;29;20041;-62
2022/10/26 04:40:29;;;;;;;7.25;2.75;;;;;;;;;;4881537;29;20056;-61
2022/10/26 04:42:56;;;;;;;6.60;3.30;;;;;;;;;;4880881;29;20049;-63
2022/10/26 04:45:22;;;;;;;4.85;3.03;;;;;;;;;;4881323;29;20104;-62
2022/10/26 04:47:58;;;;;;;6.13;3.58;;;;;;;;;;4880099;29;20049;-62
2022/10/26 04:50:26;;;;;;;6.53;3.33;;;;;;;;;;4881310;29;20524;-62
2022/10/26 04:52:54;;;;;;;7.45;3.30;;;;;;;;;;4879485;29;20413;-63
2022/10/26 04:55:20;;;;;;;10.30;3.72;;;;;;;;;;4880966;29;20052;-63
2022/10/26 04:57:46;;;;;;;5.47;3.10;;;;;;;;;;4881097;29;20049;-64
2022/10/26 05:00:13;;;;;;;7.68;3.20;;;;;;;;;;4881628;29;20121;-62
2022/10/26 05:02:40;;;;;;;6.45;3.05;;;;;;;;;;4880905;29;20041;-62
2022/10/26 05:05:06;;;;;;;4.88;3.85;;;;;;;;;;4881444;29;20387;-63
2022/10/26 05:07:37;;;;;;;6.63;3.65;;;;;;;;;;4881335;29;20041;-62
2022/10/26 05:10:04;;;;;;;7.65;3.28;;;;;;;;;;4880276;29;20061;-63
2022/10/26 05:12:30;;;;;;;10.15;3.50;;;;;;;;;;4879664;29;20104;-63
2022/10/26 05:14:58;;;;;;;10.52;3.67;;;;;;;;;;4881040;29;20037;-63
2022/10/26 05:17:24;;;;;;;7.50;3.75;;;;;;;;;;4880169;29;20144;-63
2022/10/26 05:19:55;;;;;;;9.88;3.60;;;;;;;;;;4881850;29;20694;-62
2022/10/26 05:22:22;;;;;;;6.05;3.33;;;;;;;;;;4881076;29;20045;-62
2022/10/26 05:24:48;;;;;;;8.23;3.83;;;;;;;;;;4881005;29;20672;-63
2022/10/26 05:27:15;;;;;;;10.38;5.07;;;;;;;;;;4881198;29;20051;-62
2022/10/26 05:29:41;;;;;;;13.50;4.22;;;;;;;;;;4880577;29;20049;-62
2022/10/26 05:32:07;;;;;;;7.97;3.42;;;;;;;;;;4879949;29;20041;-63
2022/10/26 05:34:34;;;;;;;6.80;4.00;;;;;;;;;;4879367;29;20045;-62
2022/10/26 05:37:06;;;;;;;12.48;4.55;;;;;;;;;;4879343;29;20045;-62
2022/10/26 05:39:32;;;;;;;9.50;5.18;;;;;;;;;;4879181;29;20049;-62
2022/10/26 05:41:58;;;;;;;12.02;4.82;;;;;;;;;;4879426;29;20049;-63
2022/10/26 05:44:26;;;;;;;8.60;3.80;;;;;;;;;;4880459;29;20101;-62
2022/10/26 05:46:52;;;;;;;8.10;4.22;;;;;;;;;;4880230;29;20045;-63
2022/10/26 05:49:19;;;;;;;8.85;3.90;;;;;;;;;;4879014;29;20057;-61
2022/10/26 05:51:45;;;;;;;7.55;3.22;;;;;;;;;;4879666;29;20045;-62
2022/10/26 05:54:11;;;;;;;12.68;3.78;;;;;;;;;;4880567;29;20052;-61
2022/10/26 05:56:40;;;;;;;15.93;5.20;;;;;;;;;;4880423;29;20124;-61
2022/10/26 05:59:10;;;;;;;12.48;5.60;;;;;;;;;;4880707;29;20045;-61
2022/10/26 06:01:44;;;;;;;12.93;7.10;;;;;;;;;;4880219;29;20045;-62
2022/10/26 06:04:24;;;;;;;10.68;6.53;;;;;;;;;;4878745;29;20565;-61
2022/10/26 06:06:53;;;;;;;6.68;3.60;;;;;;;;;;4879167;29;20144;-61
2022/10/26 06:09:20;;;;;;;9.10;4.80;;;;;;;;;;4879967;29;20056;-61
2022/10/26 06:11:46;;;;;;;9.27;3.88;;;;;;;;;;4879500;29;20060;-61
2022/10/26 06:14:13;;;;;;;8.43;3.15;;;;;;;;;;4878567;29;20525;-61
2022/10/26 06:16:54;;;;;;;4.35;3.05;;;;;;;;;;4878878;29;20096;-61
2022/10/26 06:19:20;;;;;;;6.22;2.90;;;;;;;;;;4879458;29;20041;-60
2022/10/26 06:22:09;;;;;;;4.03;3.13;;;;;;;;;;4879855;29;20486;-61
2022/10/26 06:24:56;;;;;;;7.30;2.78;;;;;;;;;;4878804;29;20071;-61
2022/10/26 06:27:42;;;;;;;7.55;3.03;;;;;;;;;;4879845;29;20053;-61
2022/10/26 06:30:10;;;;;;;6.50;2.55;;;;;;;;;;4878713;29;20041;-60
2022/10/26 06:32:37;;;;;;;6.00;3.03;;;;;;;;;;4878013;29;20049;-61
2022/10/26 06:35:13;;;;;;;10.75;2.95;;;;;;;;;;4879884;29;20048;-61
2022/10/26 06:37:43;;;;;;;4.38;2.50;;;;;;;;;;4879527;29;20115;-62
2022/10/26 06:40:10;;;;;;;6.90;3.28;;;;;;;;;;4879554;29;20427;-61
2022/10/26 06:42:37;;;;;;;6.22;2.75;;;;;;;;;;4878828;29;20037;-61
2022/10/26 06:45:03;;;;;;;4.63;2.60;;;;;;;;;;4879375;29;20049;-62
2022/10/26 06:47:36;;;;;;;7.40;4.15;;;;;;;;;;4862854;29;20048;-62
2022/10/26 06:50:10;;;;;;;6.22;3.20;;;;;;;;;;4878140;29;20525;-62
2022/10/26 06:52:43;;;;;;;5.07;2.47;;;;;;;;;;4877255;29;20053;-62
2022/10/26 06:55:14;;;;;;;5.53;2.35;;;;;;;;;;4862661;29;20216;-62
2022/10/26 06:57:41;;;;;;;7.65;2.67;;;;;;;;;;4879168;29;20037;-62
2022/10/26 07:00:14;;;;;;;7.53;3.38;;;;;;;;;;4877929;29;20113;-61
2022/10/26 07:02:41;;;;;;;5.07;2.83;;;;;;;;;;4897016;23;20049;-64
2022/10/26 07:05:11;;;;;;;3.45;2.47;;;;;;;;;;4880053;29;20083;-64
2022/10/26 07:07:42;;;;;;;5.47;2.80;;;;;;;;;;4878708;29;20423;-64
2022/10/26 07:10:09;;;;;;;5.68;2.40;;;;;;;;;;4863299;29;20056;-64
2022/10/26 07:12:36;;;;;;;8.68;2.70;;;;;;;;;;4879253;29;20049;-63
2022/10/26 07:15:03;;;;;;;5.35;2.10;;;;;;;;;;4878374;29;20073;-64
2022/10/26 07:17:30;;;;;;;7.60;2.53;;;;;;;;;;4879789;29;20525;-65
2022/10/26 07:19:56;;;;;;;4.13;2.50;;;;;;;;;;4878503;29;20053;-64
2022/10/26 07:22:24;;;;;;;6.45;2.67;;;;;;;;;;4878886;29;20045;-64
2022/10/26 07:24:51;;;;;;;6.97;2.38;;;;;;;;;;4878141;29;20064;-64
2022/10/26 07:27:20;;;;;;;6.15;2.80;;;;;;;;;;4879177;29;20565;-64
2022/10/26 07:29:46;;;;;;;5.43;2.67;;;;;;;;;;4877704;29;20053;-64
2022/10/26 07:32:13;;;;;;;8.18;2.60;;;;;;;;;;4877094;29;20056;-64
2022/10/26 07:34:39;;;;;;;7.85;2.63;;;;;;;;;;4862265;29;20055;-64
2022/10/26 07:37:06;;;;;;;8.77;3.83;;;;;;;;;;4862730;29;20049;-64
2022/10/26 07:39:32;;;;;;;19.65;7.93;;;;;;;;;;4878981;29;20053;-64
2022/10/26 07:41:59;;;;;;;8.00;4.00;;;;;;;;;;4876839;29;20100;-64
2022/10/26 07:44:25;;;;;;;6.22;3.22;;;;;;;;;;4878427;29;20053;-64
2022/10/26 07:46:52;;;;;;;7.18;2.33;;;;;;;;;;4877338;29;20455;-65
2022/10/26 07:49:18;;;;;;;5.72;2.38;;;;;;;;;;4878501;29;20049;-65
2022/10/26 07:51:45;;;;;;;6.68;3.13;;;;;;;;;;4877968;29;20119;-63
2022/10/26 07:54:12;;;;;;;5.63;2.47;;;;;;;;;;4877271;29;20458;-65
2022/10/26 07:56:38;;;;;;;5.43;2.67;;;;;;;;;;4878523;29;20041;-64
2022/10/26 07:59:05;;;;;;;7.25;3.60;;;;;;;;;;4877191;29;20094;-63
2022/10/26 08:01:31;;;;;;;8.32;4.20;;;;;;;;;;4861497;29;20143;-64
2022/10/26 08:03:58;;;;;;;4.63;2.53;;;;;;;;;;4875897;29;20196;-64
2022/10/26 08:06:24;;;;;;;5.93;2.28;;;;;;;;;;4861838;29;20057;-64
2022/10/26 08:08:52;;;;;;;6.25;2.97;;;;;;;;;;4877241;29;20120;-64
2022/10/26 08:11:19;;;;;;;7.53;3.03;;;;;;;;;;4877313;29;20485;-65
2022/10/26 08:13:45;;;;;;;8.95;2.90;;;;;;;;;;4861110;29;20052;-64
2022/10/26 08:16:12;;;;;;;8.57;2.55;;;;;;;;;;4877206;29;20049;-64
2022/10/26 08:18:38;;;;;;;9.07;2.97;;;;;;;;;;4877077;29;20486;-64
2022/10/26 08:21:06;;;;;;;5.65;2.40;;;;;;;;;;4878297;29;20049;-64
2022/10/26 08:23:37;;;;;;;6.60;2.47;;;;;;;;;;4876525;29;20040;-64
2022/10/26 08:26:04;;;;;;;10.35;2.35;;;;;;;;;;4878083;29;20052;-65
2022/10/26 08:28:30;;;;;;;5.05;2.35;;;;;;;;;;4877342;29;20059;-64
2022/10/26 08:30:57;;;;;;;6.40;2.72;;;;;;;;;;4878581;29;20060;-64
2022/10/26 08:33:24;;;;;;;7.20;2.38;;;;;;;;;;4876608;29;20053;-64
2022/10/26 08:35:54;;;;;;;4.30;2.70;;;;;;;;;;4878084;29;20052;-64
2022/10/26 08:38:20;;;;;;;7.97;3.15;;;;;;;;;;4878300;29;20041;-64
2022/10/26 08:40:47;;;;;;;5.75;2.50;;;;;;;;;;4878059;29;20041;-63
2022/10/26 08:43:22;;;;;;;3.38;2.10;;;;;;;;;;4877405;29;20504;-64
2022/10/26 08:45:49;;;;;;;7.20;3.15;;;;;;;;;;4876927;29;20566;-64
2022/10/26 08:48:28;;;;;;;4.90;2.00;;;;;;;;;;4877289;29;20047;-63
2022/10/26 08:50:55;;;;;;;6.68;3.00;;;;;;;;;;4879264;29;20045;-64
2022/10/26 08:53:32;;;;;;;4.07;2.25;;;;;;;;;;4876218;29;20044;-64
2022/10/26 08:56:02;;;;;;;5.90;2.22;;;;;;;;;;4876826;29;20049;-63
2022/10/26 08:58:35;;;;;;;6.47;2.00;;;;;;;;;;4878211;29;20640;-63
2022/10/26 09:01:02;;;;;;;6.60;2.10;;;;;;;;;;4877783;29;20045;-63
2022/10/26 09:03:28;;;;;;;6.93;2.33;;;;;;;;;;4876297;29;20482;-63
2022/10/26 09:05:58;;;;;;;7.15;2.85;;;;;;;;;;4876793;29;20446;-62
2022/10/26 09:08:24;;;;;;;6.03;2.15;;;;;;;;;;4876898;29;20041;-63
2022/10/26 09:11:11;;;;;;;7.03;2.45;;;;;;;;;;4877779;29;20117;-61
2022/10/26 09:13:48;;;;;;;6.60;3.13;;;;;;;;;;4877032;29;20061;-63
2022/10/26 09:16:15;;;;;;;4.88;2.15;;;;;;;;;;4879003;29;20127;-62
2022/10/26 09:18:41;;;;;;;7.80;2.53;;;;;;;;;;4880985;29;20490;-62
2022/10/26 09:21:26;;;;;;;3.45;2.38;;;;;;;;;;4881104;29;20558;-63
2022/10/26 09:24:05;;;;;;;4.90;2.80;;;;;;;;;;4881424;29;20128;-63
2022/10/26 09:26:58;;;;;;;5.82;2.47;;;;;;;;;;4884357;29;20085;-64
2022/10/26 09:29:27;;;;;;;5.23;2.43;;;;;;;;;;4876278;29;20071;-62
2022/10/26 09:31:55;;;;;;;6.97;2.22;;;;;;;;;;4880390;29;20061;-62
2022/10/26 09:34:31;;;;;;;3.80;1.88;;;;;;;;;;4879641;29;20053;-64
2022/10/26 09:36:57;;;;;;;6.10;2.22;;;;;;;;;;4881339;29;20093;-62
2022/10/26 09:39:24;;;;;;;6.22;2.40;;;;;;;;;;4880753;29;20596;-62
2022/10/26 09:41:59;;;;;;;5.35;2.13;;;;;;;;;;4863295;29;20061;-62
2022/10/26 09:44:32;;;;;;;4.68;2.10;;;;;;;;;;4880756;29;20051;-63
2022/10/26 09:46:58;;;;;;;;;;;;;;;;;;4880038;29;20056;-63
2022/10/26 09:49:29;;;;;;;4.85;2.63;;;;;;;;;;4880635;29;19971;-62
2022/10/26 09:51:56;;;;;;;8.85;2.67;;;;;;;;;;4878747;29;20112;-63
2022/10/26 09:54:22;;;;;;;3.97;2.30;;;;;;;;;;4880050;29;20398;-64
2022/10/26 09:56:51;;;;;;;6.90;2.58;;;;;;;;;;4880414;29;20049;-62
2022/10/26 09:59:20;;;;;;;5.70;2.15;;;;;;;;;;4879292;29;20395;-63
2022/10/26 10:01:46;;;;;;;6.82;2.00;;;;;;;;;;4879808;29;20097;-63
2022/10/26 10:04:15;;;;;;;5.57;2.10;;;;;;;;;;4880463;29;20045;-63
2022/10/26 10:06:43;;;;;;;4.90;2.22;;;;;;;;;;4879003;29;20056;-62
2022/10/26 10:09:11;;;;;;;6.45;2.45;;;;;;;;;;4879256;29;20047;-63
2022/10/26 10:11:42;;;;;;;7.45;2.65;;;;;;;;;;4878713;29;20126;-63
2022/10/26 10:14:14;;;;;;;4.95;2.45;;;;;;;;;;4880202;29;20049;-62
2022/10/26 10:16:48;;;;;;;6.15;2.60;;;;;;;;;;4879060;29;20080;-62
2022/10/26 10:19:41;;;;;;;8.02;2.53;;;;;;;;;;4880227;29;20323;-62
2022/10/26 10:22:10;;;;;;;6.07;2.25;;;;;;;;;;4862974;29;20064;-62
2022/10/26 10:24:39;;;;;;;4.35;2.17;;;;;;;;;;4880755;29;20406;-62
2022/10/26 10:27:15;;;;;;;4.82;1.88;;;;;;;;;;4879391;29;20053;-62
2022/10/26 10:29:42;;;;;;;9.10;2.08;;;;;;;;;;4879818;29;20063;-61
2022/10/26 10:32:16;;;;;;;8.82;2.17;;;;;;;;;;4879324;29;20049;-63
2022/10/26 10:34:42;;;;;;;5.18;2.60;;;;;;;;;;4879821;29;20041;-62
2022/10/26 10:37:22;;;;;;;7.10;2.45;;;;;;;;;;4878594;29;20502;-64
2022/10/26 10:39:48;;;;;;;6.68;2.65;;;;;;;;;;4879581;29;20050;-63
2022/10/26 10:42:17;;;;;;;7.22;2.33;;;;;;;;;;4864782;29;20395;-63
2022/10/26 10:44:45;;;;;;;5.25;2.00;;;;;;;;;;4880457;29;20082;-63
2022/10/26 10:47:38;;;;;;;8.82;3.00;;;;;;;;;;4882599;29;20053;-64
2022/10/26 10:50:10;;;;;;;3.95;1.92;;;;;;;;;;4881251;29;20065;-65
2022/10/26 10:52:37;;;;;;;6.25;1.90;;;;;;;;;;4881427;29;20057;-63
2022/10/26 10:55:03;;;;;;;5.93;2.40;;;;;;;;;;4883108;29;20109;-63
2022/10/26 10:57:36;;;;;;;3.97;1.65;;;;;;;;;;4883484;29;20089;-63
2022/10/26 11:00:08;;;;;;;5.47;2.13;;;;;;;;;;4881847;29;20045;-62
2022/10/26 11:02:57;;;;;;;4.20;2.15;;;;;;;;;;4863916;29;20284;-62
2022/10/26 11:05:24;;;;;;;6.40;2.20;;;;;;;;;;4878871;29;20053;-62
2022/10/26 11:07:56;;;;;;;6.35;2.15;;;;;;;;;;4879618;29;20387;-63
2022/10/26 11:10:25;;;;;;;4.05;2.13;;;;;;;;;;4878343;29;20059;-63
2022/10/26 11:12:59;;;;;;;6.72;3.60;;;;;;;;;;4877705;29;20060;-63
2022/10/26 11:15:29;;;;;;;7.35;1.90;;;;;;;;;;4879152;29;20044;-62
2022/10/26 11:18:03;;;;;;;5.72;2.53;;;;;;;;;;4880732;29;20049;-64
2022/10/26 11:20:31;;;;;;;10.75;2.20;;;;;;;;;;4882427;29;20414;-63
2022/10/26 11:23:08;;;;;;;8.40;2.47;;;;;;;;;;4880704;29;20105;-64
2022/10/26 11:25:48;;;;;;;4.18;2.15;;;;;;;;;;4880838;29;20053;-64
2022/10/26 11:28:17;;;;;;;6.32;2.30;;;;;;;;;;4880393;29;20256;-62
2022/10/26 11:30:47;;;;;;;3.40;2.00;;;;;;;;;;4883532;29;20052;-64
2022/10/26 11:33:17;;;;;;;7.63;1.80;;;;;;;;;;4883867;29;20056;-63
2022/10/26 11:35:45;;;;;;;4.65;1.60;;;;;;;;;;4882638;29;20074;-62
2022/10/26 11:38:30;;;;;;;3.75;1.75;;;;;;;;;;4877993;29;20439;-64
2022/10/26 11:41:17;;;;;;;4.18;1.60;;;;;;;;;;4879419;29;20109;-61
2022/10/26 11:43:48;;;;;;;6.68;2.40;;;;;;;;;;4877798;29;20112;-63
2022/10/26 11:46:20;;;;;;;4.68;1.63;;;;;;;;;;4878297;29;20049;-64
2022/10/26 11:49:19;;;;;;;3.38;1.60;;;;;;;;;;4877739;29;20104;-62
2022/10/26 11:51:49;;;;;;;8.25;2.20;;;;;;;;;;4867074;29;20068;-62
2022/10/26 11:54:20;;;;;;;4.97;1.52;;;;;;;;;;4877599;29;20136;-63
2022/10/26 11:56:52;;;;;;;8.32;2.40;;;;;;;;;;4878625;29;20467;-63
2022/10/26 11:59:20;;;;;;;4.03;1.75;;;;;;;;;;4878679;29;20041;-63
2022/10/26 12:01:47;;;;;;;4.68;1.70;;;;;;;;;;4877814;29;20088;-65
2022/10/26 12:04:15;;;;;;;5.93;1.58;;;;;;;;;;4878674;29;20069;-62
2022/10/26 12:06:46;;;;;;;7.38;1.58;;;;;;;;;;4878566;29;20061;-63
2022/10/26 12:09:30;;;;;;;4.20;1.85;;;;;;;;;;4877082;29;20053;-64
2022/10/26 12:12:16;;;;;;;4.63;1.90;;;;;;;;;;4877879;29;20045;-63
2022/10/26 12:14:43;;;;;;;3.35;1.65;;;;;;;;;;4878301;29;20541;-62
2022/10/26 12:17:13;;;;;;;2.88;1.65;;;;;;;;;;4876926;29;20045;-63
2022/10/26 12:19:59;;;;;;;2.67;1.20;;;;;;;;;;4876972;29;20097;-62
2022/10/26 12:22:29;;;;;;;4.72;1.67;;;;;;;;;;4877910;29;20068;-63
2022/10/26 12:25:14;;;;;;;5.45;1.90;;;;;;;;;;4878423;29;20097;-63
2022/10/26 12:27:41;;;;;;;5.75;1.60;;;;;;;;;;4878386;29;20061;-63
2022/10/26 12:30:10;;;;;;;3.58;1.77;;;;;;;;;;4877236;29;20059;-63
2022/10/26 12:32:37;;;;;;;4.97;1.67;;;;;;;;;;4877692;29;20515;-62
2022/10/26 12:35:27;;;;;;;4.35;1.75;;;;;;;;;;4876989;29;20127;-61
2022/10/26 12:37:53;;;;;;;5.00;2.08;;;;;;;;;;4878138;29;20041;-63
2022/10/26 12:40:32;;;;;;;6.63;1.67;;;;;;;;;;4878007;29;20100;-63
2022/10/26 12:43:16;;;;;;;3.83;1.50;;;;;;;;;;4877522;29;20049;-62
2022/10/26 12:45:44;;;;;;;3.70;1.50;;;;;;;;;;4878422;29;20253;-62
2022/10/26 12:48:37;;;;;;;4.78;1.70;;;;;;;;;;4878409;29;20505;-63
2022/10/26 12:51:20;;;;;;;5.28;1.75;;;;;;;;;;4880951;29;20073;-63
2022/10/26 12:54:05;;;;;;;6.97;2.00;;;;;;;;;;4883573;29;20049;-63
2022/10/26 12:56:46;;;;;;;6.68;1.50;;;;;;;;;;4882536;29;20060;-64
2022/10/26 12:59:12;;;;;;;7.30;2.03;;;;;;;;;;4881464;29;20044;-64
2022/10/26 13:01:46;;;;;;;3.75;1.48;;;;;;;;;;4879753;29;20041;-64
2022/10/26 13:04:13;;;;;;;4.95;2.00;;;;;;;;;;4881450;29;20052;-64
2022/10/26 13:07:09;;;;;;;2.58;1.50;;;;;;;;;;4881233;29;20049;-63
2022/10/26 13:09:35;;;;;;;4.40;1.45;;;;;;;;;;4877425;29;20057;-64
2022/10/26 13:12:02;;;;;;;3.60;1.90;;;;;;;;;;4880590;29;20054;-64
2022/10/26 13:14:34;;;;;;;4.10;1.52;;;;;;;;;;4881909;29;20055;-63
2022/10/26 13:17:03;;;;;;;3.50;1.83;;;;;;;;;;4883031;29;20054;-64
2022/10/26 13:19:39;;;;;;;5.22;1.60;;;;;;;;;;4882547;29;20455;-63
2022/10/26 13:22:12;;;;;;;4.78;1.83;;;;;;;;;;4879679;29;20101;-64
2022/10/26 13:24:46;;;;;;;6.57;1.92;;;;;;;;;;4881349;29;20045;-64
2022/10/26 13:27:15;;;;;;;2.50;1.70;;;;;;;;;;4881441;29;20037;-64
2022/10/26 13:30:00;;;;;;;7.45;3.20;;;;;;;;;;4880963;29;20040;-62
2022/10/26 13:32:27;;;;;;;4.82;1.85;;;;;;;;;;4879519;29;20100;-63
2022/10/26 13:34:55;;;;;;;5.03;1.95;;;;;;;;;;4881187;29;20089;-63
2022/10/26 13:37:26;;;;;;;5.13;1.85;;;;;;;;;;4881277;29;20052;-63
2022/10/26 13:39:54;;;;;;;3.67;1.40;;;;;;;;;;4881567;29;20506;-64
2022/10/26 13:42:25;;;;;;;5.38;1.50;;;;;;;;;;4878201;29;20068;-64
2022/10/26 13:44:53;;;;;;;4.43;1.38;;;;;;;;;;4879271;29;20063;-64
2022/10/26 13:47:40;;;;;;;3.22;1.80;;;;;;;;;;4878736;29;20085;-65
2022/10/26 13:50:10;;;;;;;2.92;1.52;;;;;;;;;;4878907;29;20057;-63
2022/10/26 13:52:42;;;;;;;3.53;1.27;;;;;;;;;;4878803;29;20389;-63
2022/10/26 13:55:19;;;;;;;4.05;1.60;;;;;;;;;;4878633;29;20040;-63
2022/10/26 13:57:57;;;;;;;4.28;1.67;;;;;;;;;;4878503;29;20491;-63
2022/10/26 14:00:23;;;;;;;5.97;1.77;;;;;;;;;;4879100;29;20414;-63
2022/10/26 14:02:50;;;;;;;6.40;1.60;;;;;;;;;;4876515;29;20045;-64
2022/10/26 14:05:17;;;;;;;8.05;1.95;;;;;;;;;;4879318;29;20045;-64
2022/10/26 14:07:46;;;;;;;2.40;1.48;;;;;;;;;;4879449;29;20060;-64
2022/10/26 14:10:24;;;;;;;4.07;1.60;;;;;;;;;;4879582;29;20044;-63
2022/10/26 14:12:50;;;;;;;5.05;1.70;;;;;;;;;;4879910;29;20049;-64
2022/10/26 14:15:21;;;;;;;4.43;1.58;;;;;;;;;;4880436;29;20072;-64
2022/10/26 14:17:49;;;;;;;5.78;1.83;;;;;;;;;;4881648;29;20053;-64
2022/10/26 14:20:18;;;;;;;9.60;1.63;;;;;;;;;;4880860;29;20045;-62
2022/10/26 14:22:44;;;;;;;5.75;1.40;;;;;;;;;;4878233;29;20053;-63
2022/10/26 14:25:17;;;;;;;3.22;1.50;;;;;;;;;;4880735;29;20104;-63
2022/10/26 14:27:56;;;;;;;4.10;1.92;;;;;;;;;;4879957;29;20056;-63
2022/10/26 14:30:32;;;;;;;3.38;1.85;;;;;;;;;;4881034;29;20421;-63
2022/10/26 14:32:59;;;;;;;5.22;1.30;;;;;;;;;;4879359;29;20498;-63
2022/10/26 14:35:31;;;;;;;3.33;2.00;;;;;;;;;;4879497;29;20045;-63
2022/10/26 14:38:02;;;;;;;11.52;3.03;;;;;;;;;;4879890;29;20073;-63
2022/10/26 14:40:30;;;;;;;5.65;2.40;;;;;;;;;;4878972;29;20060;-62
2022/10/26 14:42:57;;;;;;;3.90;1.90;;;;;;;;;;4879390;29;20048;-64
2022/10/26 14:45:26;;;;;;;6.57;2.58;;;;;;;;;;4879412;29;20060;-64
2022/10/26 14:48:19;;;;;;;5.60;2.25;;;;;;;;;;4879948;29;20452;-64
2022/10/26 14:51:01;;;;;;;4.40;2.05;;;;;;;;;;4878178;29;20104;-64
2022/10/26 14:53:30;;;;;;;5.88;2.05;;;;;;;;;;4862181;29;20057;-64
2022/10/26 14:55:57;;;;;;;7.22;3.58;;;;;;;;;;4878144;29;20080;-63
2022/10/26 14:58:27;;;;;;;10.88;5.07;;;;;;;;;;4878015;29;20498;-64
2022/10/26 15:01:17;;;;;;;7.30;3.42;;;;;;;;;;4879105;29;20044;-64
2022/10/26 15:03:46;;;;;;;7.13;3.72;;;;;;;;;;4878559;29;20120;-63
2022/10/26 15:06:27;;;;;;;4.75;2.33;;;;;;;;;;4878155;29;20052;-64